Time;durP1;ratioP1;P1;durP2;ratioP2;P2;SDS_P1;SDS_P2;PMS_P1;PMS_P2;Temp;Humidity;BMP_temperature;BMP_pressure;BME280_temperature;BME280_humidity;BME280_pressure;Samples;Min_cycle;Max_cycle;Signal;HPM_P1;HPM_P2
2021/05/19 00:06:24;;;;;;;3.70;1.40;;;;;;;9.72;98.66;100383.88;20868576;28;20040;-67
2021/05/19 00:16:26;;;;;;;3.42;1.35;;;;;;;9.73;98.37;100364.66;20885996;28;20084;-67
2021/05/19 00:26:28;;;;;;;5.78;1.50;;;;;;;9.81;98.27;100373.78;20894312;28;20041;-67
2021/05/19 00:36:30;;;;;;;5.13;1.80;;;;;;;9.63;100.00;100368.66;20893047;28;20045;-68
2021/05/19 00:46:33;;;;;;;5.22;1.90;;;;;;;9.71;100.00;100363.88;20872925;28;20037;-67
2021/05/19 00:56:35;;;;;;;4.25;1.77;;;;;;;9.57;100.00;100363.75;20891381;28;20049;-67
2021/05/19 01:06:51;;;;;;;7.47;2.40;;;;;;;9.47;100.00;100352.91;20882313;28;20037;-68
2021/05/19 01:16:53;;;;;;;6.90;2.53;;;;;;;9.26;100.00;100367.88;20885428;28;20468;-68
2021/05/19 01:26:55;;;;;;;4.30;2.00;;;;;;;9.14;100.00;100365.03;20896277;28;20049;-68
2021/05/19 01:36:57;;;;;;;8.52;2.35;;;;;;;8.98;100.00;100360.56;20888220;28;20048;-68
2021/05/19 01:46:59;;;;;;;4.78;2.20;;;;;;;8.93;100.00;100366.94;20879845;28;20442;-68
2021/05/19 01:57:01;;;;;;;6.82;2.67;;;;;;;8.81;100.00;100373.56;20897456;28;20114;-68
2021/05/19 02:07:03;;;;;;;7.43;2.65;;;;;;;8.75;100.00;100368.63;20872951;28;20107;-67
2021/05/19 02:17:04;;;;;;;6.28;2.70;;;;;;;8.53;100.00;100379.22;20880318;28;20052;-67
2021/05/19 02:27:06;;;;;;;6.68;3.13;;;;;;;8.43;100.00;100375.34;20908451;28;20049;-67
2021/05/19 02:37:08;;;;;;;6.18;3.05;;;;;;;8.36;100.00;100381.78;20896517;28;20044;-68
2021/05/19 02:47:10;;;;;;;7.85;3.13;;;;;;;8.34;100.00;100377.53;20886147;28;20627;-69
2021/05/19 02:57:12;;;;;;;6.88;3.22;;;;;;;8.17;100.00;100375.66;20883930;28;20049;-68
2021/05/19 03:07:14;;;;;;;10.35;4.13;;;;;;;8.28;100.00;100389.03;20885564;28;20319;-68
2021/05/19 03:17:16;;;;;;;10.00;4.68;;;;;;;8.31;100.00;100396.78;20875482;28;20119;-69
2021/05/19 03:27:18;;;;;;;8.75;4.70;;;;;;;8.22;100.00;100405.00;20893488;28;20114;-67
2021/05/19 03:37:19;;;;;;;7.85;4.38;;;;;;;8.18;100.00;100409.47;20889378;28;20040;-68
2021/05/19 03:47:21;;;;;;;6.93;3.90;;;;;;;8.16;100.00;100415.69;20866224;28;20095;-68
2021/05/19 03:57:23;;;;;;;8.27;4.35;;;;;;;8.12;100.00;100429.78;20889558;28;20041;-68
2021/05/19 04:07:25;;;;;;;8.82;4.15;;;;;;;8.28;100.00;100446.41;20881844;28;20044;-68
2021/05/19 04:17:26;;;;;;;9.35;3.90;;;;;;;8.53;100.00;100457.47;20871770;28;20036;-68
2021/05/19 04:27:28;;;;;;;8.52;3.58;;;;;;;8.56;100.00;100466.94;20895642;28;20128;-68
2021/05/19 04:37:29;;;;;;;8.70;4.40;;;;;;;8.66;100.00;100465.63;20893289;28;20045;-68
2021/05/19 04:47:31;;;;;;;7.53;3.42;;;;;;;8.79;100.00;100458.91;20873348;28;20091;-69
2021/05/19 04:57:33;;;;;;;7.80;3.72;;;;;;;8.96;100.00;100479.03;20901200;28;20392;-67
2021/05/19 05:07:35;;;;;;;8.75;4.45;;;;;;;9.16;100.00;100498.97;20879332;28;20045;-68
2021/05/19 05:17:38;;;;;;;8.45;4.15;;;;;;;9.20;100.00;100510.97;20883336;28;20045;-68
2021/05/19 05:27:40;;;;;;;7.78;4.15;;;;;;;9.32;100.00;100508.63;20900871;28;20476;-69
2021/05/19 05:37:42;;;;;;;7.82;4.45;;;;;;;9.27;100.00;100513.22;20882759;28;20047;-69
2021/05/19 05:47:44;;;;;;;11.93;4.90;;;;;;;9.31;100.00;100520.00;20887166;28;20489;-69
2021/05/19 05:57:46;;;;;;;10.60;5.13;;;;;;;9.39;100.00;100523.13;20898603;28;20049;-70
2021/05/19 06:07:48;;;;;;;9.32;4.72;;;;;;;9.58;100.00;100533.53;20826069;28;20050;-70
2021/05/19 06:17:50;;;;;;;8.15;4.43;;;;;;;9.73;99.91;100538.00;20819374;28;20081;-69
2021/05/19 06:27:52;;;;;;;8.95;4.45;;;;;;;9.99;98.56;100541.97;20817475;28;20053;-69
2021/05/19 06:37:55;;;;;;;8.73;4.32;;;;;;;10.63;94.66;100547.41;20890577;28;20041;-69
2021/05/19 06:47:58;;;;;;;7.90;3.63;;;;;;;11.45;90.93;100552.59;20890496;28;20056;-68
2021/05/19 06:57:59;;;;;;;7.95;4.60;;;;;;;11.51;87.53;100553.13;20892062;28;20045;-68
2021/05/19 07:08:01;;;;;;;16.95;4.80;;;;;;;11.37;87.55;100554.81;20875893;28;20045;-69
2021/05/19 07:18:07;;;;;;;11.65;5.30;;;;;;;11.60;83.62;100572.72;20887969;28;20050;-68
2021/05/19 07:28:17;;;;;;;7.88;4.28;;;;;;;11.35;82.95;100578.47;20884129;28;20085;-69
2021/05/19 07:38:19;;;;;;;8.45;4.38;;;;;;;11.89;82.93;100576.34;20885910;28;20086;-69
2021/05/19 07:48:21;;;;;;;6.45;3.42;;;;;;;11.87;83.52;100589.59;20891218;28;20049;-69
2021/05/19 07:58:26;;;;;;;9.13;4.35;;;;;;;12.18;80.27;100598.31;20878406;28;20057;-71
2021/05/19 08:08:27;;;;;;;7.50;3.35;;;;;;;13.01;77.49;100582.78;20888826;28;20041;-72
2021/05/19 08:18:28;;;;;;;8.10;3.22;;;;;;;13.33;73.84;100572.09;20877712;28;20137;-72
2021/05/19 08:28:32;;;;;;;6.78;3.28;;;;;;;13.51;71.80;100569.16;20888735;28;20095;-72
2021/05/19 08:38:37;;;;;;;5.87;2.73;;;;;;;13.37;69.24;100571.81;20892009;28;20512;-72
2021/05/19 08:48:41;;;;;;;;;;;;;;;13.61;67.25;100562.34;20882949;28;20049;-71
2021/05/19 08:58:43;;;;;;;5.47;2.40;;;;;;;13.27;69.14;100553.16;20883004;28;19971;-72
2021/05/19 09:08:45;;;;;;;5.07;2.40;;;;;;;13.91;64.17;100553.44;20891718;28;20053;-72
2021/05/19 09:18:47;;;;;;;6.28;2.40;;;;;;;13.64;65.87;100551.66;20872122;28;20052;-72
2021/05/19 09:28:49;;;;;;;5.85;2.08;;;;;;;14.41;60.51;100544.84;20885217;28;20111;-71
2021/05/19 09:38:53;;;;;;;5.40;1.92;;;;;;;14.40;60.76;100529.97;20867227;28;20095;-73
2021/05/19 09:49:24;;;;;;;4.53;1.98;;;;;;;14.99;55.96;100523.19;20882881;28;20194;-72
2021/05/19 09:59:49;;;;;;;3.47;1.70;;;;;;;15.12;55.44;100513.47;20885483;28;20084;-73
2021/05/19 10:09:51;;;;;;;4.35;2.00;;;;;;;15.27;55.64;100493.94;20900519;28;20450;-72
2021/05/19 10:19:58;;;;;;;6.70;1.67;;;;;;;14.95;54.26;100484.84;20896393;28;20048;-71
2021/05/19 10:30:00;;;;;;;4.57;1.73;;;;;;;14.82;54.67;100462.94;20880112;28;20049;-73
2021/05/19 10:40:11;;;;;;;5.45;1.55;;;;;;;16.45;50.18;100439.28;20894361;28;20057;-73
2021/05/19 11:00:50;;;;;;;6.72;2.03;;;;;;;17.07;46.10;100412.31;20867447;28;20059;-73
2021/05/19 11:10:54;;;;;;;5.18;1.30;;;;;;;17.54;46.64;100411.06;20892714;28;20049;-73
2021/05/19 11:20:58;;;;;;;4.13;1.25;;;;;;;16.59;47.63;100391.50;20875301;28;20080;-73
2021/05/19 11:31:17;;;;;;;5.85;1.10;;;;;;;17.81;42.99;100397.38;20885928;28;20118;-74
2021/05/19 11:41:20;;;;;;;5.70;1.20;;;;;;;16.80;45.21;100396.88;20881222;28;20056;-73
2021/05/19 11:51:24;;;;;;;7.35;1.40;;;;;;;17.46;43.83;100376.47;20878261;28;20041;-74
2021/05/19 12:01:27;;;;;;;2.93;1.00;;;;;;;17.08;45.18;100369.03;20885159;28;20044;-73
2021/05/19 12:11:34;;;;;;;2.58;0.98;;;;;;;16.85;43.88;100362.97;20880561;28;20045;-73
2021/05/19 12:21:38;;;;;;;3.50;1.00;;;;;;;17.45;41.24;100361.56;20892016;28;20043;-72
2021/05/19 12:31:40;;;;;;;3.55;1.00;;;;;;;18.01;41.18;100359.44;20872348;28;20467;-72
2021/05/19 12:41:47;;;;;;;3.03;0.90;;;;;;;17.89;40.40;100363.97;20882023;28;20099;-72
2021/05/19 12:51:52;;;;;;;4.40;0.90;;;;;;;17.76;43.59;100381.03;20881207;28;20506;-72
2021/05/19 13:01:55;;;;;;;5.43;0.95;;;;;;;14.48;59.30;100431.03;20883179;28;20099;-71
2021/05/19 13:12:06;;;;;;;3.28;0.90;;;;;;;13.80;66.60;100456.78;20873973;28;20058;-72
2021/05/19 13:22:08;;;;;;;4.32;1.10;;;;;;;13.30;74.79;100456.63;20861738;28;20046;-72
2021/05/19 13:32:20;;;;;;;3.55;0.88;;;;;;;13.12;72.44;100466.53;20899922;28;20110;-72
2021/05/19 13:42:22;;;;;;;2.33;0.80;;;;;;;12.85;71.81;100472.53;20898601;28;20056;-73
2021/05/19 13:52:25;;;;;;;4.28;1.20;;;;;;;13.04;70.65;100471.41;20895879;28;20041;-73
2021/05/19 14:02:29;;;;;;;3.97;0.93;;;;;;;13.64;67.78;100483.28;20879072;28;20045;-73
2021/05/19 14:12:39;;;;;;;3.13;0.75;;;;;;;14.58;64.73;100475.22;20884756;28;20111;-73
2021/05/19 14:33:02;;;;;;;3.25;1.08;;;;;;;15.60;59.06;100450.22;20877543;28;20500;-70
2021/05/19 15:03:44;;;;;;;4.13;0.95;;;;;;;16.52;58.68;100455.47;20898686;28;20048;-71
2021/05/19 15:13:46;;;;;;;2.60;0.60;;;;;;;16.46;58.20;100466.50;20905731;28;20045;-72
2021/05/19 15:23:49;;;;;;;4.72;0.90;;;;;;;15.58;60.40;100483.81;20867445;28;20485;-72
2021/05/19 15:33:51;;;;;;;4.55;1.67;;;;;;;15.46;61.91;100479.38;20875190;28;20041;-71
2021/05/19 15:43:54;;;;;;;3.88;1.33;;;;;;;15.36;62.78;100476.59;20896688;28;20528;-72
2021/05/19 15:53:57;;;;;;;2.92;1.15;;;;;;;15.99;62.15;100476.31;20857198;28;20052;-72
2021/05/19 16:04:00;;;;;;;3.20;0.80;;;;;;;16.82;59.12;100479.53;20887136;28;20037;-73
2021/05/19 16:14:02;;;;;;;2.17;0.95;;;;;;;16.47;59.15;100484.91;20888490;28;20445;-72
2021/05/19 16:24:07;;;;;;;1.80;0.70;;;;;;;15.98;58.56;100474.59;20902297;28;20103;-73
2021/05/19 16:34:26;;;;;;;2.88;0.80;;;;;;;16.25;53.85;100485.69;20895679;28;20126;-71
2021/05/19 16:44:31;;;;;;;4.35;1.10;;;;;;;16.09;53.37;100482.56;20882049;28;20087;-72
2021/05/19 16:54:36;;;;;;;1.07;0.40;;;;;;;15.80;49.81;100484.72;20883911;28;20091;-72
2021/05/19 17:04:54;;;;;;;2.40;0.55;;;;;;;15.18;59.97;100491.13;20885089;28;20052;-72
2021/05/19 17:15:16;;;;;;;3.35;0.57;;;;;;;14.93;62.97;100484.13;20887752;28;20049;-72
2021/05/19 17:25:18;;;;;;;2.33;0.60;;;;;;;14.48;64.27;100485.50;20896607;28;20053;-72
2021/05/19 17:35:23;;;;;;;2.28;0.80;;;;;;;14.31;64.32;100489.28;20867286;28;20053;-72
2021/05/19 17:45:26;;;;;;;4.82;2.20;;;;;;;13.69;64.42;100489.06;20900735;28;20172;-72
2021/05/19 17:55:27;;;;;;;3.30;0.85;;;;;;;13.31;65.95;100501.22;20891457;28;20515;-72
2021/05/19 18:05:29;;;;;;;2.25;0.63;;;;;;;13.10;66.40;100492.91;20894483;28;20045;-72
2021/05/19 18:15:31;;;;;;;2.50;0.60;;;;;;;12.85;66.20;100487.47;20893708;28;20075;-72
2021/05/19 18:25:33;;;;;;;3.40;1.20;;;;;;;12.55;68.38;100484.09;20879611;28;20090;-72
2021/05/19 18:35:37;;;;;;;3.90;1.20;;;;;;;12.28;70.18;100491.88;20882777;28;20099;-72
2021/05/19 18:45:40;;;;;;;5.05;1.38;;;;;;;12.01;70.94;100517.97;20884171;28;20448;-71
2021/05/19 18:55:42;;;;;;;2.88;0.90;;;;;;;11.80;70.91;100548.88;20879116;28;20053;-71
2021/05/19 19:05:43;;;;;;;2.65;0.63;;;;;;;11.39;71.47;100568.66;20887570;28;20041;-71
2021/05/19 19:15:45;;;;;;;1.83;0.70;;;;;;;11.15;72.72;100569.09;20885130;28;20079;-71
2021/05/19 19:25:47;;;;;;;2.25;0.90;;;;;;;10.91;74.88;100588.72;20878350;28;20053;-71
2021/05/19 19:35:49;;;;;;;1.00;0.40;;;;;;;10.82;75.85;100604.06;20887129;28;20415;-71
2021/05/19 19:45:51;;;;;;;2.15;0.63;;;;;;;10.72;76.10;100608.91;20882908;28;20416;-72
2021/05/19 19:55:53;;;;;;;2.95;0.63;;;;;;;10.55;76.83;100614.19;20883717;28;20616;-72
2021/05/19 20:05:55;;;;;;;1.63;0.50;;;;;;;10.39;78.71;100634.19;20871069;28;20048;-71
2021/05/19 20:15:56;;;;;;;1.35;0.60;;;;;;;10.28;79.73;100645.19;20867962;28;20393;-72
2021/05/19 20:25:58;;;;;;;4.30;1.10;;;;;;;10.18;80.72;100655.25;20877646;28;20094;-71
2021/05/19 20:35:59;;;;;;;2.20;0.77;;;;;;;10.14;82.16;100660.66;20883302;28;20065;-70
2021/05/19 20:46:01;;;;;;;3.15;0.85;;;;;;;10.07;82.77;100667.94;20881151;28;20095;-72
2021/05/19 20:56:03;;;;;;;4.25;0.90;;;;;;;9.95;82.87;100670.31;20879006;28;20041;-70
2021/05/19 21:06:05;;;;;;;7.25;1.20;;;;;;;9.68;85.50;100672.44;20884297;28;20459;-70
2021/05/19 21:16:06;;;;;;;3.58;0.77;;;;;;;9.44;87.31;100672.66;20879577;28;20049;-70
2021/05/19 21:26:07;;;;;;;10.85;0.80;;;;;;;9.34;88.50;100680.97;20876754;28;20118;-69
2021/05/19 21:36:11;;;;;;;5.68;1.10;;;;;;;9.22;89.96;100687.59;20870750;28;20057;-70
2021/05/19 21:46:13;;;;;;;4.53;0.80;;;;;;;9.10;91.29;100693.34;20877890;28;20765;-69
2021/05/19 21:56:16;;;;;;;2.63;0.70;;;;;;;9.01;92.16;100698.97;20855240;28;20046;-69
2021/05/19 22:06:18;;;;;;;2.75;1.00;;;;;;;9.06;91.73;100691.78;20875291;28;20057;-70
2021/05/19 22:16:21;;;;;;;4.78;1.00;;;;;;;8.86;93.43;100694.38;20880471;28;20053;-70
2021/05/19 22:26:23;;;;;;;2.42;1.08;;;;;;;8.73;94.59;100707.13;20830911;28;20052;-70
2021/05/19 22:36:25;;;;;;;3.00;1.55;;;;;;;8.67;95.76;100715.19;20828743;28;20127;-70
2021/05/19 22:46:28;;;;;;;4.93;1.35;;;;;;;8.56;96.38;100722.63;20866481;28;20046;-70
2021/05/19 22:56:30;;;;;;;3.95;1.27;;;;;;;8.43;97.46;100711.81;20826704;28;20050;-70
2021/05/19 23:06:33;;;;;;;4.90;1.50;;;;;;;8.27;98.03;100713.31;20826538;28;20463;-70
2021/05/19 23:16:37;;;;;;;3.70;1.55;;;;;;;8.21;98.61;100715.31;20864423;28;20050;-70
2021/05/19 23:26:39;;;;;;;3.78;1.83;;;;;;;8.13;99.34;100718.22;20825294;28;20104;-69
2021/05/19 23:36:41;;;;;;;3.70;1.60;;;;;;;8.02;99.43;100721.25;20823656;28;20464;-69
2021/05/19 23:46:42;;;;;;;5.90;1.98;;;;;;;7.93;99.41;100721.59;20873472;28;20377;-69
2021/05/19 23:56:44;;;;;;;6.00;2.33;;;;;;;7.89;100.00;100724.38;20904378;28;20099;-69
